createdAt,value
2023-01-23T00:01:21.175Z,82.00
2023-01-23T00:03:49.042Z,81.60
2023-01-23T00:06:19.140Z,82.00
2023-01-23T00:08:47.210Z,81.70
2023-01-23T00:11:18.314Z,81.60
2023-01-23T00:13:45.928Z,81.90
2023-01-23T00:16:18.609Z,82.00
2023-01-23T00:18:46.682Z,82.10
2023-01-23T00:21:18.634Z,82.30
2023-01-23T00:23:47.092Z,82.20
2023-01-23T00:26:16.130Z,82.20
2023-01-23T00:28:44.278Z,82.60
2023-01-23T00:31:22.219Z,82.20
2023-01-23T00:33:53.678Z,82.50
2023-01-23T00:36:21.260Z,83.50
2023-01-23T00:38:48.790Z,82.50
2023-01-23T00:41:16.720Z,82.50
2023-01-23T00:43:45.997Z,82.50
2023-01-23T00:46:14.492Z,81.70
2023-01-23T00:48:42.274Z,81.40
2023-01-23T00:51:09.834Z,81.30
2023-01-23T00:53:38.141Z,82.20
2023-01-23T00:56:06.000Z,83.00
2023-01-23T00:58:34.395Z,82.20
2023-01-23T01:01:02.820Z,82.40
2023-01-23T01:03:30.453Z,82.20
2023-01-23T01:05:58.161Z,82.40
2023-01-23T01:08:25.733Z,82.30
2023-01-23T01:10:53.296Z,81.80
2023-01-23T01:13:21.989Z,82.20
2023-01-23T01:15:50.964Z,82.00
2023-01-23T01:18:19.573Z,81.40
2023-01-23T01:20:47.385Z,81.30
2023-01-23T01:23:15.502Z,81.00
2023-01-23T01:25:43.152Z,80.70
2023-01-23T01:30:46.884Z,80.40
2023-01-23T01:33:14.462Z,80.60
2023-01-23T01:35:42.970Z,80.40
2023-01-23T01:38:10.814Z,80.80
2023-01-23T01:40:38.417Z,80.60
2023-01-23T01:43:07.869Z,80.50
2023-01-23T01:45:53.928Z,80.30
2023-01-23T01:48:23.682Z,80.20
2023-01-23T01:50:53.867Z,79.90
2023-01-23T01:53:24.274Z,80.10
2023-01-23T01:55:51.870Z,79.50
2023-01-23T01:58:19.707Z,78.90
2023-01-23T02:00:47.942Z,79.10
2023-01-23T02:03:17.316Z,78.90
2023-01-23T02:05:46.012Z,78.40
2023-01-23T02:08:32.182Z,78.20
2023-01-23T02:11:02.438Z,78.20
2023-01-23T02:13:36.263Z,78.00
2023-01-23T02:16:05.734Z,77.60
2023-01-23T02:18:34.642Z,77.60
2023-01-23T02:21:04.415Z,77.10
2023-01-23T02:24:01.803Z,77.00
2023-01-23T02:26:37.267Z,77.00
2023-01-23T02:29:05.298Z,77.00
2023-01-23T02:31:51.620Z,76.70
2023-01-23T02:34:20.364Z,76.70
2023-01-23T02:36:48.866Z,76.40
2023-01-23T02:39:17.788Z,76.30
2023-01-23T02:41:46.872Z,76.00
2023-01-23T02:44:17.268Z,75.40
2023-01-23T02:46:47.373Z,75.20
2023-01-23T02:51:47.193Z,74.40
2023-01-23T02:54:15.799Z,74.40
2023-01-23T02:56:43.877Z,73.90
2023-01-23T02:59:31.203Z,73.60
2023-01-23T03:01:59.247Z,73.50
2023-01-23T03:04:27.084Z,73.10
2023-01-23T03:06:54.746Z,73.20
2023-01-23T03:09:23.025Z,72.70
2023-01-23T03:11:51.407Z,71.80
2023-01-23T03:14:20.546Z,72.30
2023-01-23T03:16:51.647Z,71.30
2023-01-23T03:19:20.494Z,71.80
2023-01-23T03:21:48.145Z,71.40
2023-01-23T03:24:16.780Z,71.60
2023-01-23T03:26:45.635Z,71.00
2023-01-23T03:29:42.635Z,71.00
2023-01-23T03:32:11.013Z,71.40
2023-01-23T03:34:39.105Z,70.20
2023-01-23T03:37:08.602Z,70.40
2023-01-23T03:39:54.716Z,68.50
2023-01-23T03:42:27.385Z,70.20
2023-01-23T03:44:57.418Z,67.90
2023-01-23T03:47:28.530Z,68.90
2023-01-23T03:49:57.156Z,67.70
2023-01-23T03:52:34.315Z,68.60
2023-01-23T03:55:22.276Z,68.70
2023-01-23T03:57:50.366Z,68.20
2023-01-23T04:00:33.921Z,69.00
2023-01-23T04:03:07.296Z,67.40
2023-01-23T04:05:35.340Z,67.30
2023-01-23T04:08:03.255Z,66.50
2023-01-23T04:10:38.086Z,67.10
2023-01-23T04:13:06.245Z,67.00
2023-01-23T04:15:35.278Z,67.00
2023-01-23T04:18:04.188Z,67.60
2023-01-23T04:20:35.349Z,67.10
2023-01-23T04:23:11.679Z,66.90
2023-01-23T04:25:42.962Z,65.90
2023-01-23T04:28:22.749Z,65.10
2023-01-23T04:30:52.332Z,63.60
2023-01-23T04:33:20.728Z,64.40
2023-01-23T04:36:02.347Z,62.50
2023-01-23T04:38:31.451Z,59.60
2023-01-23T04:40:59.382Z,59.60
2023-01-23T04:43:27.602Z,62.10
2023-01-23T04:45:56.283Z,60.20
2023-01-23T04:48:27.360Z,59.60
2023-01-23T04:50:55.210Z,58.30
2023-01-23T04:53:22.893Z,58.40
2023-01-23T04:55:50.879Z,59.30
2023-01-23T04:58:19.699Z,59.40
2023-01-23T05:00:48.348Z,60.30
2023-01-23T05:03:16.575Z,58.30
2023-01-23T05:05:45.840Z,59.10
2023-01-23T05:08:14.376Z,61.10
2023-01-23T05:10:42.326Z,60.20
2023-01-23T05:13:12.451Z,57.50
2023-01-23T05:15:40.920Z,57.00
2023-01-23T05:18:08.556Z,56.30
2023-01-23T05:20:36.152Z,56.80
2023-01-23T05:23:04.558Z,57.60
2023-01-23T05:25:32.580Z,55.90
2023-01-23T05:28:00.187Z,55.40
2023-01-23T05:30:28.869Z,56.20
2023-01-23T05:32:58.563Z,56.40
2023-01-23T05:35:26.258Z,56.90
2023-01-23T05:37:55.083Z,56.90
2023-01-23T05:40:23.890Z,56.70
2023-01-23T05:42:51.473Z,57.40
2023-01-23T05:45:19.158Z,56.30
2023-01-23T05:47:47.743Z,55.90
2023-01-23T05:50:17.464Z,55.60
2023-01-23T05:52:46.388Z,51.60
2023-01-23T05:55:14.220Z,51.90
2023-01-23T05:57:42.071Z,54.40
2023-01-23T06:00:20.670Z,58.20
2023-01-23T06:02:48.478Z,60.40
2023-01-23T06:05:16.408Z,60.30
2023-01-23T06:07:44.922Z,59.30
2023-01-23T06:10:12.511Z,56.40
2023-01-23T06:12:43.567Z,51.10
2023-01-23T06:15:33.982Z,51.50
2023-01-23T06:18:01.952Z,52.90
2023-01-23T06:20:29.682Z,53.90
2023-01-23T06:22:58.211Z,53.50
2023-01-23T06:25:25.992Z,48.90
2023-01-23T06:27:55.091Z,52.20
2023-01-23T06:30:23.028Z,55.60
2023-01-23T06:32:52.745Z,54.70
2023-01-23T06:35:22.932Z,55.30
2023-01-23T06:37:50.841Z,56.90
2023-01-23T06:40:19.114Z,57.10
2023-01-23T06:42:47.901Z,50.00
2023-01-23T06:45:19.059Z,51.90
2023-01-23T06:47:47.210Z,48.50
2023-01-23T06:52:49.752Z,55.10
2023-01-23T06:55:18.835Z,54.70
2023-01-23T06:57:49.398Z,49.00
2023-01-23T07:00:32.094Z,48.70
2023-01-23T07:03:05.927Z,47.20
2023-01-23T07:05:37.424Z,47.30
2023-01-23T07:08:05.643Z,49.80
2023-01-23T07:10:57.183Z,45.20
2023-01-23T07:13:25.704Z,51.10
2023-01-23T07:15:53.422Z,49.90
2023-01-23T07:18:21.187Z,48.80
2023-01-23T07:20:50.266Z,52.80
2023-01-23T07:23:18.444Z,53.90
2023-01-23T07:25:46.414Z,55.30
2023-01-23T07:28:15.283Z,48.20
2023-01-23T07:30:42.849Z,52.00
2023-01-23T07:33:10.894Z,51.60
2023-01-23T07:35:39.662Z,50.00
2023-01-23T07:38:09.106Z,50.40
2023-01-23T07:40:39.711Z,52.80
2023-01-23T07:43:08.199Z,53.00
2023-01-23T07:45:36.670Z,50.90
2023-01-23T07:48:04.913Z,50.90
2023-01-23T07:50:33.990Z,49.40
2023-01-23T07:53:06.093Z,48.20
2023-01-23T07:55:34.011Z,48.30
2023-01-23T07:58:02.080Z,50.60
2023-01-23T08:00:30.486Z,53.90
2023-01-23T08:02:58.823Z,55.00
2023-01-23T08:05:27.737Z,52.20
2023-01-23T08:08:11.471Z,51.00
2023-01-23T08:10:40.533Z,51.90
2023-01-23T08:13:10.392Z,53.10
2023-01-23T08:15:39.543Z,53.60
2023-01-23T08:18:13.938Z,50.90
2023-01-23T08:20:44.629Z,52.20
2023-01-23T08:23:12.271Z,51.00
2023-01-23T08:25:39.816Z,51.60
2023-01-23T08:28:08.783Z,47.20
2023-01-23T08:30:36.567Z,48.00
2023-01-23T08:33:05.397Z,50.60
2023-01-23T08:35:33.067Z,50.70
2023-01-23T08:38:00.845Z,49.60
2023-01-23T08:40:28.829Z,46.50
2023-01-23T08:42:57.450Z,48.50
2023-01-23T08:45:25.737Z,49.50
2023-01-23T08:47:53.512Z,46.70
2023-01-23T08:50:21.488Z,48.20
2023-01-23T08:52:49.900Z,48.70
2023-01-23T08:55:18.007Z,49.10
2023-01-23T08:57:46.146Z,47.10
2023-01-23T09:00:13.961Z,48.80
2023-01-23T09:02:41.835Z,47.80
2023-01-23T09:05:09.715Z,50.00
2023-01-23T09:07:38.226Z,44.90
2023-01-23T09:10:20.309Z,47.90
2023-01-23T09:12:48.016Z,43.60
2023-01-23T09:15:16.330Z,44.00
2023-01-23T09:17:45.199Z,44.30
2023-01-23T09:20:13.876Z,46.30
2023-01-23T09:22:41.894Z,44.40
2023-01-23T09:25:09.836Z,44.80
2023-01-23T09:27:37.487Z,46.30
2023-01-23T09:30:05.834Z,47.60
2023-01-23T09:32:33.510Z,48.50
2023-01-23T09:35:02.692Z,48.00
2023-01-23T09:37:58.486Z,46.20
2023-01-23T09:40:28.603Z,45.30
2023-01-23T09:43:00.069Z,48.10
2023-01-23T09:45:28.204Z,47.90
2023-01-23T09:48:26.618Z,49.10
2023-01-23T09:51:02.397Z,49.60
2023-01-23T09:53:34.374Z,49.20
2023-01-23T09:56:19.405Z,50.50
2023-01-23T09:59:10.773Z,51.50
2023-01-23T10:01:38.717Z,50.50
2023-01-23T10:04:06.424Z,50.00
2023-01-23T10:06:57.868Z,50.30
2023-01-23T10:09:47.924Z,50.40
2023-01-23T10:12:33.530Z,50.80
2023-01-23T10:15:07.297Z,49.40
2023-01-23T10:17:51.076Z,50.20
2023-01-23T10:20:53.989Z,50.70
2023-01-23T10:23:25.136Z,51.20
2023-01-23T10:25:53.551Z,52.50
2023-01-23T10:28:40.397Z,51.70
2023-01-23T10:31:36.966Z,51.80
2023-01-23T10:34:07.960Z,51.20
2023-01-23T10:37:07.846Z,52.40
2023-01-23T10:39:55.455Z,51.80
2023-01-23T10:42:24.299Z,51.00
2023-01-23T10:44:51.878Z,51.70
2023-01-23T10:47:59.878Z,52.10
2023-01-23T10:50:39.594Z,51.40
2023-01-23T10:53:08.442Z,50.50
2023-01-23T10:55:36.167Z,51.90
2023-01-23T10:58:04.137Z,52.10
2023-01-23T11:00:40.836Z,52.20
2023-01-23T11:03:21.570Z,52.90
2023-01-23T11:06:02.190Z,53.00
2023-01-23T11:08:40.834Z,53.00
2023-01-23T11:11:22.275Z,53.20
2023-01-23T11:13:51.715Z,54.10
2023-01-23T11:16:23.286Z,53.90
2023-01-23T11:18:55.444Z,54.10
2023-01-23T11:21:23.821Z,54.20
2023-01-23T11:24:08.125Z,54.30
2023-01-23T11:26:37.088Z,54.90
2023-01-23T11:29:19.731Z,55.10
2023-01-23T11:31:47.478Z,55.40
2023-01-23T11:34:17.859Z,55.80
2023-01-23T11:36:51.693Z,55.90
2023-01-23T11:39:28.911Z,56.10
2023-01-23T11:41:57.907Z,56.30
2023-01-23T11:44:30.099Z,56.50
2023-01-23T11:47:18.363Z,56.80
2023-01-23T11:49:59.622Z,57.00
2023-01-23T11:52:39.323Z,57.10
2023-01-23T11:55:15.992Z,57.20
2023-01-23T11:58:02.120Z,56.90
2023-01-23T12:00:33.437Z,57.00
2023-01-23T12:03:01.019Z,56.80
2023-01-23T12:05:44.486Z,57.20
2023-01-23T12:08:14.876Z,57.20
2023-01-23T12:10:45.549Z,57.30
2023-01-23T12:13:16.593Z,57.30
2023-01-23T12:15:47.850Z,57.40
2023-01-23T12:18:22.068Z,57.50
2023-01-23T12:20:55.146Z,57.40
2023-01-23T12:23:25.687Z,57.20
2023-01-23T12:26:02.119Z,56.90
2023-01-23T12:28:48.272Z,57.10
2023-01-23T12:31:30.402Z,57.30
2023-01-23T12:34:01.087Z,57.40
2023-01-23T12:37:07.232Z,57.00
2023-01-23T12:39:56.491Z,57.40
2023-01-23T12:42:53.100Z,57.40
2023-01-23T12:45:22.775Z,57.30
2023-01-23T12:47:57.648Z,57.20
2023-01-23T12:50:46.048Z,57.70
2023-01-23T12:53:23.566Z,57.60
2023-01-23T12:56:01.407Z,57.30
2023-01-23T12:58:32.443Z,57.60
2023-01-23T13:01:03.994Z,57.80
2023-01-23T13:03:45.979Z,57.60
2023-01-23T13:06:18.690Z,57.60
2023-01-23T13:09:12.034Z,57.50
2023-01-23T13:11:48.111Z,57.60
2023-01-23T13:17:36.811Z,57.70
2023-01-23T13:20:40.036Z,57.90
2023-01-23T13:23:20.835Z,57.80
2023-01-23T13:25:48.777Z,57.90
2023-01-23T13:28:35.419Z,57.70
2023-01-23T13:31:29.729Z,57.60
2023-01-23T13:34:10.225Z,58.10
2023-01-23T13:36:43.069Z,58.30
2023-01-23T13:39:22.282Z,58.10
2023-01-23T13:42:09.599Z,58.30
2023-01-23T13:44:42.050Z,58.70
2023-01-23T14:20:40.970Z,58.80
2023-01-23T14:26:19.855Z,58.70
2023-01-23T14:29:00.842Z,59.80
2023-01-23T14:31:30.016Z,59.70
2023-01-23T14:34:09.630Z,59.70
2023-01-23T14:36:38.522Z,59.90
2023-01-23T14:39:06.436Z,59.80
2023-01-23T14:41:40.220Z,59.80
2023-01-23T14:44:14.151Z,60.10
2023-01-23T14:46:41.746Z,60.30
2023-01-23T14:49:10.286Z,60.60
2023-01-23T14:51:37.833Z,60.60
2023-01-23T14:54:10.417Z,60.60
2023-01-23T14:56:40.984Z,61.60
2023-01-23T14:59:14.955Z,61.20
2023-01-23T15:01:42.589Z,61.10
2023-01-23T15:04:23.886Z,61.30
2023-01-23T15:06:56.246Z,61.40
2023-01-23T15:09:29.246Z,61.40
2023-01-23T15:11:57.300Z,61.80
2023-01-23T15:14:32.434Z,62.00
2023-01-23T15:17:01.243Z,62.30
2023-01-23T15:19:29.235Z,62.30
2023-01-23T15:22:21.212Z,62.40
2023-01-23T15:24:49.764Z,62.60
2023-01-23T15:27:30.973Z,62.70
2023-01-23T15:30:16.941Z,63.00
2023-01-23T15:32:44.572Z,63.10
2023-01-23T15:35:18.626Z,63.20
2023-01-23T15:37:50.207Z,63.00
2023-01-23T15:40:18.708Z,63.10
2023-01-23T15:43:02.106Z,63.20
2023-01-23T15:45:29.841Z,63.00
2023-01-23T15:47:57.361Z,62.90
2023-01-23T15:50:27.061Z,63.10
2023-01-23T15:52:55.489Z,63.00
2023-01-23T15:55:25.833Z,63.10
2023-01-23T15:57:54.190Z,63.00
2023-01-23T16:00:25.134Z,63.20
2023-01-23T16:02:56.575Z,63.20
2023-01-23T16:05:26.130Z,63.30
2023-01-23T16:07:54.265Z,63.80
2023-01-23T16:10:23.294Z,63.70
2023-01-23T16:12:52.196Z,63.80
2023-01-23T16:15:23.942Z,64.00
2023-01-23T16:17:51.927Z,64.20
2023-01-23T16:20:24.451Z,64.30
2023-01-23T16:22:53.421Z,64.20
2023-01-23T16:25:34.708Z,64.30
2023-01-23T16:28:17.665Z,64.80
2023-01-23T16:30:45.626Z,64.80
2023-01-23T16:33:13.532Z,65.10
2023-01-23T16:35:41.736Z,65.50
2023-01-23T16:38:16.698Z,65.30
2023-01-23T16:40:44.308Z,65.60
2023-01-23T16:43:11.872Z,65.50
2023-01-23T16:45:41.161Z,65.70
2023-01-23T16:48:12.930Z,66.10
2023-01-23T16:50:51.952Z,65.80
2023-01-23T16:53:23.802Z,66.10
2023-01-23T16:55:54.757Z,66.00
2023-01-23T16:58:24.858Z,66.40
2023-01-23T17:00:53.253Z,66.70
2023-01-23T17:03:22.960Z,67.30
2023-01-23T17:05:50.591Z,66.70
2023-01-23T17:08:18.903Z,67.20
2023-01-23T17:10:54.722Z,67.00
2023-01-23T17:13:23.266Z,67.30
2023-01-23T17:15:52.244Z,67.20
2023-01-23T17:18:26.800Z,67.10
2023-01-23T17:20:57.811Z,67.30
2023-01-23T17:23:25.949Z,67.70
2023-01-23T17:26:00.763Z,67.50
2023-01-23T17:28:29.337Z,67.50
2023-01-23T17:31:00.732Z,67.80
2023-01-23T17:33:31.880Z,68.70
2023-01-23T17:36:00.936Z,68.90
2023-01-23T17:38:33.239Z,68.20
2023-01-23T17:41:01.591Z,68.20
2023-01-23T17:43:29.643Z,68.50
2023-01-23T17:45:58.140Z,68.50
2023-01-23T17:48:28.601Z,68.30
2023-01-23T17:50:56.457Z,69.20
2023-01-23T17:53:24.253Z,69.00
2023-01-23T17:55:53.113Z,69.10
2023-01-23T17:58:21.841Z,68.90
2023-01-23T18:00:51.392Z,69.30
2023-01-23T18:03:22.119Z,69.60
2023-01-23T18:05:50.504Z,69.80
2023-01-23T18:08:19.008Z,70.30
2023-01-23T18:10:47.632Z,70.10
2023-01-23T18:13:15.270Z,69.90
2023-01-23T18:15:48.879Z,71.20
2023-01-23T18:18:20.331Z,70.10
2023-01-23T18:20:48.655Z,70.30
2023-01-23T18:23:16.212Z,70.60
2023-01-23T18:25:45.587Z,70.40
2023-01-23T18:28:20.281Z,70.00
2023-01-23T18:30:50.813Z,70.00
2023-01-23T18:33:21.516Z,70.90
2023-01-23T18:36:07.497Z,70.60
2023-01-23T18:38:36.307Z,71.70
2023-01-23T18:41:10.033Z,70.80
2023-01-23T18:43:40.937Z,71.40
2023-01-23T18:46:15.628Z,71.00
2023-01-23T18:48:45.006Z,71.40
2023-01-23T18:51:34.644Z,71.60
2023-01-23T18:54:23.677Z,71.50
2023-01-23T18:56:57.144Z,71.30
2023-01-23T18:59:36.783Z,71.30
2023-01-23T19:02:17.075Z,72.20
2023-01-23T19:04:56.883Z,72.00
2023-01-23T19:07:24.521Z,71.40
2023-01-23T19:09:52.135Z,70.50
2023-01-23T19:12:26.034Z,70.00
2023-01-23T19:15:09.159Z,69.50
2023-01-23T19:17:47.086Z,69.40
2023-01-23T19:20:22.864Z,69.10
2023-01-23T19:22:55.784Z,68.90
2023-01-23T19:25:23.736Z,68.50
2023-01-23T19:27:57.041Z,68.80
2023-01-23T19:30:28.490Z,68.80
2023-01-23T19:32:56.880Z,69.00
2023-01-23T19:35:24.426Z,69.10
2023-01-23T19:37:52.027Z,70.90
2023-01-23T19:40:19.670Z,70.30
2023-01-23T19:42:58.758Z,69.30
2023-01-23T19:45:35.701Z,71.10
2023-01-23T19:48:03.276Z,71.70
2023-01-23T19:50:31.017Z,71.80
2023-01-23T19:53:00.697Z,70.90
2023-01-23T19:55:32.700Z,70.70
2023-01-23T19:58:00.460Z,71.50
2023-01-23T20:00:31.224Z,70.80
2023-01-23T20:02:59.802Z,69.80
2023-01-23T20:05:27.762Z,71.50
2023-01-23T20:07:55.669Z,72.60
2023-01-23T20:10:23.255Z,74.40
2023-01-23T20:12:56.831Z,73.80
2023-01-23T20:15:26.211Z,73.40
2023-01-23T20:17:54.128Z,71.40
2023-01-23T20:20:22.735Z,71.00
2023-01-23T20:22:50.670Z,73.60
2023-01-23T20:25:18.643Z,71.80
2023-01-23T20:27:46.228Z,75.50
2023-01-23T20:30:15.661Z,72.50
2023-01-23T20:32:43.352Z,73.90
2023-01-23T20:35:11.141Z,77.00
2023-01-23T20:37:38.843Z,74.20
2023-01-23T20:40:09.109Z,76.10
2023-01-23T20:42:37.135Z,75.60
2023-01-23T20:45:04.856Z,75.30
2023-01-23T20:47:32.504Z,75.10
2023-01-23T20:50:00.255Z,73.30
2023-01-23T20:52:46.088Z,73.40
2023-01-23T20:55:14.387Z,73.70
2023-01-23T20:58:01.066Z,75.60
2023-01-23T21:00:28.585Z,73.80
2023-01-23T21:02:56.195Z,73.00
2023-01-23T21:05:24.021Z,72.90
2023-01-23T21:07:51.595Z,73.20
2023-01-23T21:10:19.157Z,75.30
2023-01-23T21:12:47.065Z,73.30
2023-01-23T21:15:14.839Z,73.30
2023-01-23T21:17:43.128Z,73.30
2023-01-23T21:20:10.937Z,73.40
2023-01-23T21:22:38.582Z,75.40
2023-01-23T21:25:06.357Z,73.60
2023-01-23T21:27:33.814Z,74.90
2023-01-23T21:30:01.653Z,73.80
2023-01-23T21:32:29.253Z,72.70
2023-01-23T21:34:56.807Z,74.30
2023-01-23T21:37:24.727Z,75.30
2023-01-23T21:39:52.374Z,75.40
2023-01-23T21:42:19.963Z,75.30
2023-01-23T21:44:48.390Z,76.00
2023-01-23T21:47:15.877Z,77.40
2023-01-23T21:49:43.397Z,78.00
2023-01-23T21:52:10.888Z,77.00
2023-01-23T21:54:41.776Z,77.20
2023-01-23T21:57:09.408Z,77.70
2023-01-23T21:59:36.925Z,77.10
2023-01-23T22:02:05.224Z,76.70
2023-01-23T22:04:32.886Z,75.00
2023-01-23T22:07:00.397Z,74.60
2023-01-23T22:09:27.873Z,74.90
2023-01-23T22:11:56.048Z,78.50
2023-01-23T22:14:24.445Z,77.40
2023-01-23T22:16:52.278Z,75.60
2023-01-23T22:19:24.700Z,77.50
2023-01-23T22:21:53.445Z,75.20
2023-01-23T22:24:21.170Z,77.50
2023-01-23T22:26:48.856Z,78.70
2023-01-23T22:29:16.492Z,78.10
2023-01-23T22:31:44.214Z,77.10
2023-01-23T22:34:11.885Z,77.20
2023-01-23T22:36:39.732Z,75.90
2023-01-23T22:39:07.244Z,76.30
2023-01-23T22:41:34.895Z,77.00
2023-01-23T22:44:03.226Z,77.60
2023-01-23T22:46:32.615Z,77.30
2023-01-23T22:49:00.942Z,78.10
2023-01-23T22:51:28.739Z,77.30
2023-01-23T22:53:57.044Z,78.70
2023-01-23T22:56:25.062Z,78.80
2023-01-23T22:58:54.535Z,76.80
2023-01-23T23:01:28.674Z,78.00
2023-01-23T23:03:58.665Z,77.00
2023-01-23T23:06:26.679Z,77.40
2023-01-23T23:08:54.550Z,76.00
2023-01-23T23:11:26.434Z,76.50
2023-01-23T23:13:55.173Z,78.50
2023-01-23T23:16:27.771Z,77.30
2023-01-23T23:18:56.396Z,77.80
2023-01-23T23:21:25.423Z,76.60
2023-01-23T23:23:58.288Z,76.50
2023-01-23T23:26:26.841Z,76.50
2023-01-23T23:28:55.024Z,76.50
2023-01-23T23:31:22.758Z,76.40
2023-01-23T23:33:50.563Z,77.20
2023-01-23T23:36:18.902Z,76.60
2023-01-23T23:38:47.336Z,76.30
2023-01-23T23:41:15.787Z,76.30
2023-01-23T23:43:43.853Z,76.70
2023-01-23T23:46:12.085Z,77.10
2023-01-23T23:48:40.189Z,77.50
2023-01-23T23:51:09.359Z,77.40
2023-01-23T23:53:37.358Z,78.60
2023-01-23T23:56:05.642Z,80.80
2023-01-23T23:58:35.753Z,79.60
